createdAt,value
2017-11-19T11:08:32.463Z,3.20
2017-11-19T11:10:59.437Z,2.50
2017-11-19T11:13:25.702Z,2.30
2017-11-19T11:15:52.695Z,2.50
2017-11-19T11:18:18.931Z,2.40
2017-11-19T11:20:45.231Z,2.10
2017-11-19T11:23:11.498Z,2.50
2017-11-19T11:25:38.457Z,2.37
2017-11-19T11:28:04.767Z,2.50
2017-11-19T11:30:30.981Z,2.73
2017-11-19T11:32:57.187Z,2.40
2017-11-19T11:35:23.500Z,2.03
2017-11-19T11:37:49.771Z,2.93
2017-11-19T11:40:16.062Z,2.83
2017-11-19T11:42:42.276Z,2.17
2017-11-19T11:45:08.506Z,2.27
2017-11-19T11:47:34.787Z,2.60
2017-11-19T11:50:01.119Z,1.87
2017-11-19T11:52:27.456Z,2.37
2017-11-19T11:54:53.811Z,2.50
2017-11-19T11:57:20.040Z,1.90
2017-11-19T11:59:46.414Z,2.23
2017-11-19T12:02:12.959Z,1.90
2017-11-19T12:04:40.029Z,2.07
2017-11-19T12:07:06.315Z,2.40
2017-11-19T12:09:32.686Z,2.37
2017-11-19T12:11:59.038Z,2.20
2017-11-19T12:14:25.415Z,2.43
2017-11-19T12:16:51.649Z,2.07
2017-11-19T12:19:17.904Z,2.60
2017-11-19T12:21:44.215Z,2.60
2017-11-19T12:24:10.480Z,1.90
2017-11-19T12:26:36.714Z,2.30
2017-11-19T12:29:02.952Z,2.60
2017-11-19T12:31:29.228Z,3.17
2017-11-19T12:33:56.536Z,2.13
2017-11-19T12:36:22.770Z,2.10
2017-11-19T12:38:49.115Z,3.00
2017-11-19T12:41:15.351Z,2.77
2017-11-19T12:43:42.615Z,2.57
2017-11-19T12:46:08.921Z,3.00
2017-11-19T12:48:35.440Z,3.10
2017-11-19T12:51:01.713Z,3.00
2017-11-19T12:53:27.942Z,2.60
2017-11-19T12:55:54.942Z,2.87
2017-11-19T12:58:21.158Z,3.33
2017-11-19T13:00:47.390Z,3.57
2017-11-19T13:03:13.697Z,3.13
2017-11-19T13:05:39.975Z,4.80
2017-11-19T13:08:06.255Z,3.60
2017-11-19T13:10:32.539Z,3.27
2017-11-19T13:12:58.929Z,3.47
2017-11-19T13:15:25.126Z,2.63
2017-11-19T13:17:51.682Z,2.10
2017-11-19T13:20:17.995Z,3.80
2017-11-19T13:22:44.266Z,2.90
2017-11-19T13:27:41.813Z,2.10
2017-11-19T13:30:08.140Z,2.20
2017-11-19T13:32:34.651Z,2.37
2017-11-19T13:35:00.865Z,2.27
2017-11-19T13:37:27.064Z,2.03
2017-11-19T13:39:53.356Z,2.10
2017-11-19T13:42:19.596Z,2.63
2017-11-19T13:44:45.868Z,2.50
2017-11-19T13:47:12.352Z,2.90
2017-11-19T13:49:40.670Z,3.70
2017-11-19T13:52:07.628Z,3.40
2017-11-19T13:54:34.590Z,2.70
2017-11-19T13:57:04.698Z,3.10
2017-11-19T13:59:30.920Z,2.03
2017-11-19T14:01:57.202Z,2.10
2017-11-19T14:04:23.463Z,2.57
2017-11-19T14:06:49.691Z,2.40
2017-11-19T14:09:15.938Z,3.17
2017-11-19T14:11:42.163Z,2.10
2017-11-19T14:14:08.475Z,3.57
2017-11-19T14:16:34.706Z,2.10
2017-11-19T14:19:00.974Z,2.20
2017-11-19T14:21:27.331Z,2.30
2017-11-19T14:23:53.527Z,2.67
2017-11-19T14:26:20.553Z,3.07
2017-11-19T14:28:46.984Z,3.37
2017-11-19T14:31:13.263Z,2.57
2017-11-19T14:33:39.570Z,2.63
2017-11-19T14:36:05.762Z,2.50
2017-11-19T14:38:31.973Z,2.90
2017-11-19T14:40:58.209Z,3.10
2017-11-19T14:43:24.519Z,3.60
2017-11-19T14:45:50.851Z,4.77
2017-11-19T14:48:17.033Z,5.37
2017-11-19T14:50:43.266Z,3.00
2017-11-19T14:53:09.516Z,2.80
2017-11-19T14:55:35.713Z,2.83
2017-11-19T14:58:01.959Z,3.00
2017-11-19T15:00:28.198Z,4.20
2017-11-19T15:02:54.492Z,4.10
2017-11-19T15:05:20.785Z,4.33
2017-11-19T15:07:47.034Z,5.13
2017-11-19T15:10:13.385Z,4.70
2017-11-19T15:12:39.650Z,3.33
2017-11-19T15:15:06.136Z,3.80
2017-11-19T15:17:32.406Z,3.40
2017-11-19T15:19:58.779Z,3.20
2017-11-19T15:22:24.967Z,3.00
2017-11-19T15:24:52.057Z,3.57
2017-11-19T15:27:18.369Z,3.40
2017-11-19T15:29:44.761Z,3.30
2017-11-19T15:32:10.971Z,3.03
2017-11-19T15:34:37.288Z,4.53
2017-11-19T15:37:03.528Z,2.70
2017-11-19T15:39:29.765Z,2.90
2017-11-19T15:41:56.079Z,3.40
2017-11-19T15:44:22.424Z,2.83
2017-11-19T15:46:49.447Z,3.80
2017-11-19T15:49:16.635Z,3.13
2017-11-19T15:51:42.918Z,3.23
2017-11-19T15:54:09.261Z,3.70
2017-11-19T15:56:35.907Z,3.10
2017-11-19T15:59:02.187Z,3.10
2017-11-19T16:01:31.202Z,2.60
2017-11-19T16:03:57.417Z,3.03
2017-11-19T16:06:24.627Z,3.90
2017-11-19T16:08:50.845Z,3.60
2017-11-19T16:11:17.072Z,3.63
2017-11-19T16:13:44.235Z,3.30
2017-11-19T16:16:10.484Z,3.20
2017-11-19T16:18:37.356Z,4.37
2017-11-19T16:21:03.630Z,2.40
2017-11-19T16:23:29.864Z,4.67
2017-11-19T16:25:56.111Z,3.70
2017-11-19T16:28:22.390Z,3.40
2017-11-19T16:30:48.646Z,5.73
2017-11-19T16:33:14.882Z,3.30
2017-11-19T16:35:41.137Z,4.00
2017-11-19T16:38:07.378Z,3.50
2017-11-19T16:40:33.622Z,3.27
2017-11-19T16:42:59.862Z,4.70
2017-11-19T16:45:26.277Z,4.43
2017-11-19T16:47:52.491Z,8.60
2017-11-19T16:50:18.757Z,5.73
2017-11-19T16:52:45.025Z,3.30
2017-11-19T16:55:11.239Z,3.10
2017-11-19T16:57:37.441Z,3.37
2017-11-19T17:00:03.778Z,3.50
2017-11-19T17:02:30.091Z,3.40
2017-11-19T17:04:57.050Z,4.03
2017-11-19T17:07:23.334Z,3.97
2017-11-19T17:09:49.645Z,3.00
2017-11-19T17:12:15.907Z,2.90
2017-11-19T17:14:42.094Z,2.77
2017-11-19T17:17:08.335Z,3.73
2017-11-19T17:19:35.355Z,3.40
2017-11-19T17:22:01.590Z,5.90
2017-11-19T17:24:27.944Z,2.90
2017-11-19T17:26:54.223Z,3.20
2017-11-19T17:29:21.273Z,3.40
2017-11-19T17:31:48.250Z,3.70
2017-11-19T17:34:14.460Z,3.27
2017-11-19T17:36:46.729Z,3.43
2017-11-19T17:39:13.007Z,3.70
2017-11-19T17:41:39.225Z,4.50
2017-11-19T17:44:06.313Z,3.23
2017-11-19T17:46:33.298Z,3.37
2017-11-19T17:48:59.525Z,4.00
2017-11-19T17:51:25.749Z,3.27
2017-11-19T17:53:52.287Z,2.90
2017-11-19T17:56:18.645Z,2.97
2017-11-19T17:58:44.857Z,4.07
2017-11-19T18:01:11.103Z,3.27
2017-11-19T18:03:37.463Z,3.47
2017-11-19T18:06:04.839Z,3.20
2017-11-19T18:08:32.119Z,2.67
2017-11-19T18:10:58.523Z,3.57
2017-11-19T18:13:25.539Z,3.70
2017-11-19T18:15:51.996Z,3.67
2017-11-19T18:18:18.299Z,3.77
2017-11-19T18:20:44.546Z,3.47
2017-11-19T18:23:10.827Z,2.90
2017-11-19T18:25:37.086Z,3.77
2017-11-19T18:28:14.012Z,3.60
2017-11-19T18:30:40.239Z,4.30
2017-11-19T18:33:06.491Z,5.73
2017-11-19T18:35:32.744Z,4.57
2017-11-19T18:37:58.961Z,5.27
2017-11-19T18:40:25.195Z,3.97
2017-11-19T18:42:51.442Z,6.40
2017-11-19T18:45:18.541Z,6.33
2017-11-19T18:47:45.734Z,8.60
2017-11-19T18:50:12.035Z,15.27
2017-11-19T18:52:38.337Z,6.03
2017-11-19T18:55:04.630Z,7.10
2017-11-19T18:57:30.918Z,4.33
2017-11-19T18:59:57.191Z,5.43
2017-11-19T19:02:23.417Z,4.33
2017-11-19T19:04:50.834Z,5.00
2017-11-19T19:07:17.811Z,5.00
2017-11-19T19:09:44.518Z,4.53
2017-11-19T19:12:10.702Z,5.97
2017-11-19T19:14:37.096Z,5.10
2017-11-19T19:17:03.363Z,4.17
2017-11-19T19:19:29.747Z,4.63
2017-11-19T19:21:56.058Z,4.20
2017-11-19T19:24:22.285Z,4.10
2017-11-19T19:26:49.338Z,5.33
2017-11-19T19:29:15.566Z,5.10
2017-11-19T19:31:42.642Z,4.77
2017-11-19T19:34:08.917Z,4.67
2017-11-19T19:36:35.171Z,5.67
2017-11-19T19:39:01.359Z,5.07
2017-11-19T19:41:27.703Z,5.50
2017-11-19T19:43:54.395Z,4.70
2017-11-19T19:46:20.678Z,4.47
2017-11-19T19:48:46.915Z,5.03
2017-11-19T19:51:13.199Z,4.77
2017-11-19T19:53:39.612Z,5.57
2017-11-19T19:56:06.658Z,4.10
2017-11-19T19:58:33.043Z,5.13
2017-11-19T20:00:59.245Z,4.23
2017-11-19T20:03:25.514Z,4.33
2017-11-19T20:05:51.815Z,4.90
2017-11-19T20:08:18.146Z,4.80
2017-11-19T20:10:44.514Z,5.30
2017-11-19T20:13:10.740Z,3.90
2017-11-19T20:15:37.194Z,4.73
2017-11-19T20:18:03.550Z,4.27
2017-11-19T20:20:29.778Z,4.80
2017-11-19T20:22:56.073Z,4.20
2017-11-19T20:25:23.262Z,5.50
2017-11-19T20:27:49.523Z,4.07
2017-11-19T20:30:15.781Z,5.20
2017-11-19T20:32:42.790Z,5.50
2017-11-19T20:35:09.010Z,4.73
2017-11-19T20:37:35.216Z,5.13
2017-11-19T20:40:01.640Z,5.20
2017-11-19T20:42:29.904Z,5.17
2017-11-19T20:44:56.181Z,5.07
2017-11-19T20:47:22.414Z,4.53
2017-11-19T20:49:48.638Z,5.30
2017-11-19T20:52:15.014Z,4.13
2017-11-19T20:54:41.267Z,4.10
2017-11-19T20:57:07.476Z,4.50
2017-11-19T20:59:33.743Z,4.60
2017-11-19T21:02:00.115Z,4.50
2017-11-19T21:04:26.386Z,4.53
2017-11-19T21:06:52.617Z,3.83
2017-11-19T21:09:19.785Z,4.30
2017-11-19T21:11:46.762Z,5.43
2017-11-19T21:14:13.050Z,4.20
2017-11-19T21:16:39.372Z,4.10
2017-11-19T21:19:05.615Z,4.83
2017-11-19T21:21:31.945Z,4.53
2017-11-19T21:23:58.174Z,4.40
2017-11-19T21:26:24.437Z,4.47
2017-11-19T21:28:50.698Z,4.57
2017-11-19T21:31:16.937Z,4.80
2017-11-19T21:33:43.384Z,5.50
2017-11-19T21:36:09.642Z,4.90
2017-11-19T21:38:35.985Z,6.37
2017-11-19T21:41:02.575Z,6.33
2017-11-19T21:43:29.169Z,6.23
2017-11-19T21:45:59.418Z,5.80
2017-11-19T21:48:25.928Z,6.07
2017-11-19T21:50:52.204Z,4.93
2017-11-19T21:53:18.460Z,5.40
2017-11-19T21:55:44.775Z,4.90
2017-11-19T21:58:11.089Z,5.70
2017-11-19T22:00:37.538Z,5.90
2017-11-19T22:03:04.124Z,5.27
2017-11-19T22:05:30.378Z,6.20
2017-11-19T22:07:57.795Z,4.90
2017-11-19T22:10:24.097Z,5.30
2017-11-19T22:12:51.059Z,6.00
2017-11-19T22:15:18.094Z,5.90
2017-11-19T22:17:44.385Z,5.53
2017-11-19T22:20:10.640Z,5.63
2017-11-19T22:22:36.904Z,4.90
2017-11-19T22:25:03.179Z,6.17
2017-11-19T22:27:30.168Z,4.93
2017-11-19T22:29:56.616Z,5.60
2017-11-19T22:32:22.945Z,4.90
2017-11-19T22:34:49.138Z,5.87
2017-11-19T22:37:15.360Z,5.47
2017-11-19T22:39:41.711Z,5.30
2017-11-19T22:42:07.948Z,5.27
2017-11-19T22:44:34.193Z,5.80
2017-11-19T22:47:01.957Z,5.73
2017-11-19T22:49:28.186Z,5.83
2017-11-19T22:51:54.499Z,6.73
2017-11-19T22:54:20.749Z,6.33
2017-11-19T22:56:46.944Z,6.00
2017-11-19T22:59:13.177Z,6.10
2017-11-19T23:01:39.406Z,6.70
2017-11-19T23:04:05.652Z,6.17
2017-11-19T23:06:31.849Z,6.17
2017-11-19T23:08:58.073Z,7.27
2017-11-19T23:11:24.271Z,8.47
2017-11-19T23:13:52.002Z,6.40
2017-11-19T23:16:18.177Z,7.13
2017-11-19T23:18:44.397Z,7.20
2017-11-19T23:21:10.652Z,7.30
2017-11-19T23:23:37.641Z,7.23
2017-11-19T23:26:03.841Z,5.47
2017-11-19T23:28:30.248Z,6.70
2017-11-19T23:30:56.481Z,5.63
2017-11-19T23:33:22.682Z,7.70
2017-11-19T23:35:48.879Z,7.03
2017-11-19T23:38:15.049Z,7.30
2017-11-19T23:40:41.292Z,7.30
2017-11-19T23:43:07.501Z,7.37
2017-11-19T23:45:34.519Z,6.77
2017-11-19T23:48:00.715Z,6.00
2017-11-19T23:50:26.963Z,7.10
2017-11-19T23:52:53.150Z,7.80
2017-11-19T23:55:19.393Z,6.80
2017-11-19T23:57:46.525Z,6.57
